createdAt,value
2019-02-24T11:21:37.003Z,10.86
2019-02-24T11:22:35.599Z,10.81
2019-02-24T11:23:34.149Z,10.82
2019-02-24T11:24:33.016Z,10.78
2019-02-24T11:25:31.570Z,10.82
2019-02-24T11:26:30.217Z,10.73
2019-02-24T11:27:28.896Z,10.73
2019-02-24T11:28:27.430Z,10.74
2019-02-24T11:29:26.269Z,10.71
2019-02-24T11:30:25.008Z,10.81
2019-02-24T11:31:23.711Z,10.76
2019-02-24T11:32:22.448Z,10.82
2019-02-24T11:33:21.165Z,10.78
2019-02-24T11:34:19.716Z,10.82
2019-02-24T11:35:18.605Z,10.81
2019-02-24T11:36:17.256Z,10.84
2019-02-24T11:37:15.840Z,10.76
2019-02-24T11:38:14.513Z,10.91
2019-02-24T11:39:13.072Z,10.86
2019-02-24T11:40:11.606Z,10.84
2019-02-24T11:41:10.277Z,10.79
2019-02-24T11:42:08.934Z,10.96
2019-02-24T11:43:07.497Z,10.97
2019-02-24T11:44:06.349Z,10.97
2019-02-24T11:45:04.974Z,10.99
2019-02-24T11:46:03.572Z,10.97
2019-02-24T11:47:02.413Z,10.99
2019-02-24T11:48:01.087Z,11
2019-02-24T11:48:59.683Z,11.06
2019-02-24T11:49:58.418Z,11.11
2019-02-24T11:55:15.931Z,11.19
2019-02-24T12:00:28.552Z,11.32
2019-02-24T12:01:27.295Z,11.32
2019-02-24T12:02:33.873Z,11.33
2019-02-24T12:03:24.571Z,11.37
2019-02-24T12:04:23.396Z,11.44
2019-02-24T12:05:21.892Z,11.42
2019-02-24T12:06:20.655Z,11.54
2019-02-24T12:07:19.252Z,11.57
2019-02-24T12:09:35.198Z,11.54
2019-02-24T12:10:33.764Z,11.57
2019-02-24T12:11:32.260Z,11.55
2019-02-24T12:12:31.096Z,11.46
2019-02-24T12:13:29.639Z,11.49
2019-02-24T12:14:28.294Z,11.51
2019-02-24T12:15:26.893Z,11.51
2019-02-24T12:16:25.448Z,11.54
2019-02-24T12:17:24.010Z,11.55
2019-02-24T12:18:22.573Z,11.49
2019-02-24T12:19:21.147Z,11.55
2019-02-24T12:20:19.695Z,11.43
2019-02-24T12:21:18.390Z,11.58
2019-02-24T12:22:17.022Z,11.61
2019-02-24T12:23:15.595Z,11.52
2019-02-24T12:24:14.296Z,11.55
2019-02-24T12:25:12.865Z,11.57
2019-02-24T12:26:11.377Z,11.55
2019-02-24T12:27:10.014Z,11.54
2019-02-24T12:28:08.654Z,11.57
2019-02-24T12:29:07.206Z,11.69
2019-02-24T12:30:06.170Z,11.65
2019-02-24T12:31:04.618Z,11.72
2019-02-24T12:32:03.237Z,11.65
2019-02-24T12:33:01.928Z,11.72
2019-02-24T12:34:00.559Z,11.7
2019-02-24T12:34:59.261Z,11.6
2019-02-24T12:35:57.758Z,11.61
2019-02-24T12:36:56.349Z,11.6
2019-02-24T12:37:54.973Z,11.6
2019-02-24T12:38:53.595Z,11.64
2019-02-24T12:39:52.303Z,11.72
2019-02-24T12:40:51.013Z,11.69
2019-02-24T12:41:49.624Z,11.67
2019-02-24T12:42:48.249Z,11.69
2019-02-24T12:43:46.890Z,11.72
2019-02-24T12:44:45.454Z,11.7
2019-02-24T12:45:44.153Z,11.75
2019-02-24T12:46:42.763Z,11.75
2019-02-24T12:47:41.414Z,11.73
2019-02-24T12:48:39.969Z,11.86
2019-02-24T12:49:38.726Z,11.85
2019-02-24T12:50:37.342Z,11.82
2019-02-24T12:51:35.866Z,11.78
2019-02-24T12:52:34.505Z,11.8
2019-02-24T12:53:33.101Z,11.83
2019-02-24T12:54:31.626Z,11.82
2019-02-24T12:55:30.352Z,11.83
2019-02-24T12:56:28.960Z,11.9
2019-02-24T12:57:27.488Z,11.85
2019-02-24T12:58:26.016Z,11.86
2019-02-24T12:59:24.861Z,11.76
2019-02-24T13:00:23.424Z,11.88
2019-02-24T13:01:21.970Z,11.85
2019-02-24T13:02:20.716Z,11.85
2019-02-24T13:03:23.889Z,11.88
2019-02-24T13:04:17.875Z,11.91
2019-02-24T13:05:16.599Z,11.85
2019-02-24T13:06:15.266Z,11.96
2019-02-24T13:07:13.814Z,11.88
2019-02-24T13:08:12.537Z,11.96
2019-02-24T13:09:11.194Z,11.91
2019-02-24T13:10:09.748Z,11.94
2019-02-24T13:11:08.262Z,11.9
2019-02-24T13:12:06.948Z,11.99
2019-02-24T13:13:05.516Z,11.95
2019-02-24T13:14:04.190Z,12.01
2019-02-24T13:15:03.448Z,11.96
2019-02-24T13:16:01.487Z,11.96
2019-02-24T13:17:00.041Z,12.02
2019-02-24T13:17:58.703Z,11.99
2019-02-24T13:18:57.331Z,11.98
2019-02-24T13:19:55.886Z,12.05
2019-02-24T13:20:54.494Z,12.07
2019-02-24T13:21:53.071Z,12.04
2019-02-24T13:22:51.653Z,12.1
2019-02-24T13:23:50.232Z,12.13
2019-02-24T13:24:48.887Z,12.12
2019-02-24T13:25:47.419Z,12.12
2019-02-24T13:26:46.000Z,12.12
2019-02-24T13:27:44.915Z,12.14
2019-02-24T13:28:50.302Z,12.12
2019-02-24T13:29:42.058Z,12.19
2019-02-24T13:30:40.625Z,12.24
2019-02-24T13:31:39.159Z,12.23
2019-02-24T13:32:37.699Z,12.14
2019-02-24T13:33:36.282Z,12.16
2019-02-24T13:34:34.816Z,12.24
2019-02-24T13:35:33.382Z,12.28
2019-02-24T13:36:32.052Z,12.24
2019-02-24T13:37:30.919Z,12.31
2019-02-24T13:38:29.431Z,12.29
2019-02-24T13:39:28.113Z,12.28
2019-02-24T13:40:26.756Z,12.42
2019-02-24T13:41:25.848Z,12.41
2019-02-24T13:42:24.397Z,12.38
2019-02-24T13:43:23.115Z,12.45
2019-02-24T13:44:21.650Z,12.38
2019-02-24T13:45:20.276Z,12.38
2019-02-24T13:48:00.318Z,12.42
2019-02-24T13:48:58.948Z,12.42
2019-02-24T13:49:57.521Z,12.39
2019-02-24T13:50:56.117Z,12.47
2019-02-24T13:51:54.847Z,12.47
2019-02-24T13:52:53.430Z,12.47
2019-02-24T13:53:52.012Z,12.46
2019-02-24T13:54:50.752Z,12.45
2019-02-24T14:17:30.860Z,12.67
2019-02-24T14:18:29.440Z,12.67
2019-02-24T14:19:28.006Z,12.67
2019-02-24T14:20:26.640Z,12.65
2019-02-24T14:21:25.279Z,12.64
2019-02-24T14:22:23.851Z,12.7
2019-02-24T14:23:22.518Z,12.75
2019-02-24T14:24:21.132Z,12.72
2019-02-24T14:25:19.700Z,12.71
2019-02-24T14:26:19.713Z,12.74
2019-02-24T14:27:17.047Z,12.74
2019-02-24T14:28:15.628Z,12.83
2019-02-24T14:29:14.279Z,12.86
2019-02-24T14:30:13.013Z,12.82
2019-02-24T14:31:11.691Z,12.85
2019-02-24T14:32:10.280Z,12.79
2019-02-24T14:33:08.833Z,12.89
2019-02-24T14:34:07.402Z,12.78
2019-02-24T14:35:06.008Z,12.89
2019-02-24T14:37:40.054Z,12.82
2019-02-24T14:38:38.663Z,12.78
2019-02-24T14:39:37.209Z,12.85
2019-02-24T14:40:35.836Z,12.96
2019-02-24T14:41:34.447Z,12.95
2019-02-24T14:42:33.117Z,12.96
2019-02-24T14:43:31.646Z,12.89
2019-02-24T14:44:30.255Z,12.92
2019-02-24T14:45:28.870Z,12.93
2019-02-24T14:46:27.410Z,13.05
2019-02-24T14:47:26.101Z,13.01
2019-02-24T14:48:24.614Z,13.01
2019-02-24T14:49:23.137Z,12.95
2019-02-24T14:50:21.820Z,12.97
2019-02-24T14:51:20.549Z,12.97
2019-02-24T14:52:19.280Z,12.96
2019-02-24T14:53:17.885Z,12.97
2019-02-24T14:54:16.398Z,13.01
2019-02-24T14:55:15.120Z,12.95
2019-02-24T14:56:13.735Z,12.96
2019-02-24T14:57:12.373Z,12.96
2019-02-24T14:58:11.118Z,12.95
2019-02-24T14:59:09.789Z,13.01
2019-02-24T15:00:08.559Z,13
2019-02-24T15:01:07.281Z,12.95
2019-02-24T15:02:05.844Z,13.01
2019-02-24T15:03:04.561Z,13.03
2019-02-24T15:04:03.207Z,13.04
2019-02-24T15:05:01.803Z,13.08
2019-02-24T15:06:00.663Z,13.07
2019-02-24T15:06:59.440Z,13.04
2019-02-24T15:07:57.948Z,13.01
2019-02-24T15:08:56.516Z,13.12
2019-02-24T15:09:55.202Z,12.96
2019-02-24T15:10:53.795Z,12.95
2019-02-24T15:11:52.379Z,13
2019-02-24T15:12:51.314Z,12.97
2019-02-24T15:13:49.937Z,13.03
2019-02-24T15:14:48.536Z,12.97
2019-02-24T15:15:47.163Z,13.03
2019-02-24T15:16:45.766Z,12.97
2019-02-24T15:17:44.392Z,12.97
2019-02-24T15:18:43.211Z,13.08
2019-02-24T15:19:41.823Z,12.97
2019-02-24T15:20:40.496Z,13.04
2019-02-24T15:21:39.106Z,13
2019-02-24T15:22:38.383Z,13
2019-02-24T15:23:37.043Z,12.97
2019-02-24T15:24:35.611Z,12.97
2019-02-24T15:25:34.218Z,13
2019-02-24T15:26:32.798Z,13.01
2019-02-24T15:27:31.403Z,12.97
2019-02-24T15:28:30.154Z,13.08
2019-02-24T15:29:28.925Z,12.95
2019-02-24T15:30:27.480Z,12.95
2019-02-24T15:31:26.038Z,13
2019-02-24T15:32:24.748Z,13.01
2019-02-24T15:33:23.341Z,12.96
2019-02-24T15:34:21.985Z,12.97
2019-02-24T15:35:20.662Z,12.97
2019-02-24T15:36:19.512Z,13.01
2019-02-24T15:37:18.062Z,12.93
2019-02-24T15:38:16.694Z,13.04
2019-02-24T15:39:15.368Z,13
2019-02-24T15:40:14.006Z,12.96
2019-02-24T15:41:12.833Z,12.96
2019-02-24T15:42:11.277Z,12.97
2019-02-24T15:43:09.878Z,12.92
2019-02-24T15:44:10.099Z,12.96
2019-02-24T15:45:07.293Z,12.95
2019-02-24T15:46:05.866Z,12.93
2019-02-24T15:47:04.376Z,12.97
2019-02-24T15:48:03.049Z,13
2019-02-24T15:49:01.612Z,13.05
2019-02-24T15:50:00.375Z,12.95
2019-02-24T15:50:59.183Z,13.01
2019-02-24T15:51:57.803Z,13.01
2019-02-24T15:52:56.522Z,12.97
2019-02-24T15:53:55.303Z,12.96
2019-02-24T15:54:53.957Z,12.95
2019-02-24T15:55:52.531Z,12.97
2019-02-24T15:56:51.308Z,12.97
2019-02-24T15:57:49.835Z,12.97
2019-02-24T15:58:48.678Z,12.93
2019-02-24T15:59:47.289Z,12.93
2019-02-24T16:00:45.936Z,12.95
2019-02-24T16:01:44.548Z,12.93
2019-02-24T16:02:43.314Z,13.03
2019-02-24T16:03:41.878Z,12.97
2019-02-24T16:04:40.700Z,12.96
2019-02-24T16:05:39.291Z,12.96
2019-02-24T16:06:37.871Z,12.95
2019-02-24T16:07:36.643Z,12.95
2019-02-24T16:08:35.220Z,13.01
2019-02-24T16:09:33.842Z,13
2019-02-24T16:10:32.552Z,12.93
2019-02-24T16:11:31.164Z,12.93
2019-02-24T16:12:29.718Z,12.96
2019-02-24T16:13:28.299Z,12.96
2019-02-24T16:14:26.908Z,13.01
2019-02-24T16:15:25.463Z,12.95
2019-02-24T16:16:24.017Z,13
2019-02-24T16:17:22.579Z,12.82
2019-02-24T16:18:21.186Z,12.77
2019-02-24T16:19:19.774Z,12.87
2019-02-24T16:20:18.515Z,12.82
2019-02-24T16:21:17.068Z,12.87
2019-02-24T16:22:15.689Z,12.89
2019-02-24T16:23:14.351Z,12.9
2019-02-24T16:24:13.054Z,12.86
2019-02-24T16:25:11.629Z,12.78
2019-02-24T16:26:10.261Z,12.78
2019-02-24T16:27:08.936Z,12.85
2019-02-24T16:28:07.572Z,12.82
2019-02-24T16:29:06.160Z,12.9
2019-02-24T16:30:04.897Z,12.9
2019-02-24T16:31:03.457Z,12.86
2019-02-24T16:32:02.073Z,12.77
2019-02-24T16:33:00.644Z,12.78
2019-02-24T16:33:59.247Z,12.72
2019-02-24T16:34:58.003Z,12.72
2019-02-24T16:35:56.603Z,12.75
2019-02-24T16:36:55.286Z,12.67
2019-02-24T16:37:53.906Z,12.68
2019-02-24T16:38:52.525Z,12.62
2019-02-24T16:39:51.229Z,12.57
2019-02-24T16:40:49.862Z,12.68
2019-02-24T16:41:48.408Z,12.59
2019-02-24T16:42:47.034Z,12.53
2019-02-24T16:43:45.619Z,12.6
2019-02-24T16:44:44.139Z,12.59
2019-02-24T16:45:42.844Z,12.57
2019-02-24T16:46:41.579Z,12.6
2019-02-24T16:47:40.203Z,12.5
2019-02-24T16:48:39.049Z,12.59
2019-02-24T16:49:37.647Z,12.47
2019-02-24T16:50:36.215Z,12.49
2019-02-24T16:51:34.873Z,12.35
2019-02-24T16:52:33.556Z,12.35
2019-02-24T16:53:32.211Z,12.38
2019-02-24T16:54:30.899Z,12.39
2019-02-24T16:55:29.450Z,12.34
2019-02-24T16:56:28.013Z,12.27
2019-02-24T16:57:26.938Z,12.29
2019-02-24T16:58:25.720Z,12.28
2019-02-24T16:59:24.434Z,12.32
2019-02-24T17:00:23.215Z,12.27
2019-02-24T17:01:21.825Z,12.27
2019-02-24T17:02:22.848Z,12.24
2019-02-24T17:03:20.189Z,12.1
2019-02-24T17:04:18.005Z,12.12
2019-02-24T17:05:16.706Z,12.14
2019-02-24T17:06:15.337Z,12.16
2019-02-24T17:07:13.920Z,12.13
2019-02-24T17:08:13.011Z,12.04
2019-02-24T17:09:11.650Z,12.05
2019-02-24T17:10:10.264Z,12.04
2019-02-24T17:11:08.841Z,11.98
2019-02-24T17:12:07.402Z,11.96
2019-02-24T17:13:06.151Z,11.94
2019-02-24T17:14:05.062Z,11.95
2019-02-24T17:15:03.703Z,11.95
2019-02-24T17:16:02.394Z,11.98
2019-02-24T17:17:01.675Z,11.94
2019-02-24T17:17:59.476Z,11.86
2019-02-24T17:18:58.058Z,11.88
2019-02-24T17:19:56.834Z,11.83
2019-02-24T17:20:55.496Z,11.79
2019-02-24T17:21:54.067Z,11.83
2019-02-24T17:22:52.680Z,11.79
2019-02-24T17:23:52.409Z,11.75
2019-02-24T17:24:49.969Z,11.67
2019-02-24T17:25:48.654Z,11.64
2019-02-24T17:26:47.231Z,11.69
2019-02-24T17:27:45.934Z,11.65
2019-02-24T17:28:44.452Z,11.57
2019-02-24T17:29:43.159Z,11.73
2019-02-24T17:30:41.701Z,11.73
2019-02-24T17:31:40.303Z,11.64
2019-02-24T17:32:38.904Z,11.62
2019-02-24T17:33:37.552Z,11.61
2019-02-24T17:34:36.101Z,11.6
2019-02-24T17:35:34.721Z,11.52
2019-02-24T17:36:33.270Z,11.55
2019-02-24T17:37:31.872Z,11.44
2019-02-24T17:38:30.515Z,11.54
2019-02-24T17:39:29.415Z,11.57
2019-02-24T17:40:28.003Z,11.54
2019-02-24T17:41:26.668Z,11.54
2019-02-24T17:42:25.225Z,11.57
2019-02-24T17:43:23.855Z,11.55
2019-02-24T17:44:22.561Z,11.57
2019-02-24T17:45:21.119Z,11.55
2019-02-24T17:46:19.742Z,11.49
2019-02-24T17:47:18.373Z,11.6
2019-02-24T17:48:17.074Z,11.55
2019-02-24T17:49:15.701Z,11.55
2019-02-24T17:50:14.382Z,11.49
2019-02-24T17:51:20.747Z,11.55
2019-02-24T17:52:11.806Z,11.49
2019-02-24T17:53:10.661Z,11.55
2019-02-24T17:54:09.352Z,11.49
2019-02-24T17:55:07.920Z,11.47
2019-02-24T17:56:06.575Z,11.49
2019-02-24T17:57:05.223Z,11.54
2019-02-24T17:58:04.081Z,11.47
2019-02-24T17:59:02.908Z,11.47
2019-02-24T18:00:01.519Z,11.47
2019-02-24T18:01:00.302Z,11.44
2019-02-24T18:01:58.981Z,11.42
2019-02-24T18:02:57.668Z,11.49
2019-02-24T18:03:56.382Z,11.47
2019-02-24T18:04:55.070Z,11.54
2019-02-24T18:05:53.836Z,11.42
2019-02-24T18:06:52.422Z,11.42
2019-02-24T18:07:51.342Z,11.39
2019-02-24T18:08:54.190Z,11.42
2019-02-24T18:09:48.577Z,11.42
2019-02-24T18:10:47.149Z,11.4
2019-02-24T18:11:45.817Z,11.37
2019-02-24T18:12:44.540Z,11.4
2019-02-24T18:13:43.361Z,11.42
2019-02-24T18:14:41.971Z,11.44
2019-02-24T18:15:40.810Z,11.43
2019-02-24T18:16:39.401Z,11.4
2019-02-24T18:17:37.942Z,11.4
2019-02-24T18:18:36.628Z,11.35
2019-02-24T18:19:35.353Z,11.27
2019-02-24T18:20:33.980Z,11.36
2019-02-24T18:21:32.580Z,11.37
2019-02-24T18:22:31.365Z,11.33
2019-02-24T18:23:29.909Z,11.35
2019-02-24T18:24:28.554Z,11.36
2019-02-24T18:25:27.247Z,11.22
2019-02-24T18:26:25.900Z,11.28
2019-02-24T18:27:24.740Z,11.32
2019-02-24T18:28:23.447Z,11.25
2019-02-24T18:29:22.061Z,11.17
2019-02-24T18:30:20.786Z,11.17
2019-02-24T18:31:19.507Z,11.22
2019-02-24T18:32:18.075Z,11.22
2019-02-24T18:33:16.773Z,11.19
2019-02-24T18:34:15.458Z,11.17
2019-02-24T18:35:14.153Z,11.28
2019-02-24T18:36:12.881Z,11.22
2019-02-24T18:37:11.545Z,11.27
2019-02-24T18:38:10.128Z,11.18
2019-02-24T18:39:08.938Z,11.28
2019-02-24T18:40:07.495Z,11.29
2019-02-24T18:41:06.139Z,11.17
2019-02-24T18:42:04.918Z,11.22
2019-02-24T18:43:03.449Z,11.19
2019-02-24T18:44:02.047Z,11.14
2019-02-24T18:45:00.884Z,11.21
2019-02-24T18:45:59.505Z,11.18
2019-02-24T18:46:58.074Z,11.19
2019-02-24T18:47:56.827Z,11.18
2019-02-24T18:48:55.493Z,11.17
2019-02-24T18:49:54.113Z,11.19
2019-02-24T18:50:52.831Z,11.19
2019-02-24T18:51:51.512Z,11.19
2019-02-24T18:52:49.970Z,11.14
2019-02-24T18:53:48.749Z,11.14
2019-02-24T18:54:47.444Z,11.14
2019-02-24T18:55:46.091Z,11.14
2019-02-24T18:56:44.759Z,11.06
2019-02-24T18:57:43.433Z,11.03
2019-02-24T18:58:42.014Z,11.06
2019-02-24T18:59:40.702Z,11.06
2019-02-24T19:00:39.504Z,11.11
2019-02-24T19:01:38.332Z,11.1
2019-02-24T19:02:37.167Z,10.97
2019-02-24T19:03:35.745Z,11.09
2019-02-24T19:04:34.331Z,10.99
2019-02-24T19:05:33.046Z,11.06
2019-02-24T19:06:38.859Z,11.1
2019-02-24T19:07:30.146Z,11
2019-02-24T19:08:28.889Z,11.04
2019-02-24T19:09:27.466Z,11.03
2019-02-24T19:10:26.039Z,10.96
2019-02-24T19:11:24.576Z,10.97
2019-02-24T19:12:23.277Z,10.97
2019-02-24T19:13:21.833Z,10.96
2019-02-24T19:14:20.432Z,11.02
2019-02-24T19:15:19.299Z,11
2019-02-24T19:16:17.977Z,11
2019-02-24T19:17:16.590Z,11
2019-02-24T19:18:15.437Z,10.99
2019-02-24T19:19:14.101Z,11.03
2019-02-24T19:20:12.746Z,11.04
2019-02-24T19:21:11.335Z,10.96
2019-02-24T19:22:09.999Z,10.96
2019-02-24T19:23:08.622Z,10.94
2019-02-24T19:24:07.393Z,10.96
2019-02-24T19:25:06.034Z,10.94
2019-02-24T19:26:04.741Z,10.88
2019-02-24T19:27:03.357Z,10.94
2019-02-24T19:28:01.976Z,10.92
2019-02-24T19:29:00.678Z,10.96
2019-02-24T19:29:59.444Z,10.91
2019-02-24T19:30:58.028Z,10.94
2019-02-24T19:31:58.416Z,10.99
2019-02-24T19:32:55.668Z,10.88
2019-02-24T19:33:54.238Z,10.84
2019-02-24T19:34:53.033Z,10.79
2019-02-24T19:35:51.606Z,10.82
2019-02-24T19:36:50.175Z,10.74
2019-02-24T19:37:49.743Z,10.84
2019-02-24T19:38:52.632Z,10.71
2019-02-24T19:39:51.512Z,10.68
2019-02-24T19:40:55.632Z,10.67
2019-02-24T19:41:59.812Z,10.73
2019-02-24T19:43:01.041Z,10.61
2019-02-24T19:43:59.645Z,10.56
2019-02-24T19:45:00.310Z,10.56
2019-02-24T19:46:00.966Z,10.7
2019-02-24T19:46:59.593Z,10.73
2019-02-24T19:47:58.119Z,10.64
2019-02-24T19:48:56.845Z,10.66
2019-02-24T19:49:56.302Z,10.81
2019-02-24T19:50:54.915Z,10.79
2019-02-24T19:51:53.543Z,10.81
2019-02-24T19:52:52.206Z,10.79
2019-02-24T19:53:50.700Z,10.82
2019-02-24T19:54:49.342Z,10.79
2019-02-24T19:55:47.945Z,10.85
2019-02-24T19:56:46.684Z,10.79
2019-02-24T19:57:45.280Z,10.82
2019-02-24T19:58:43.825Z,10.78
2019-02-24T19:59:42.517Z,10.76
2019-02-24T20:00:41.146Z,10.74
2019-02-24T20:01:39.722Z,10.84
2019-02-24T20:02:38.277Z,10.76
2019-02-24T20:03:36.858Z,10.73
2019-02-24T20:04:35.566Z,10.76
2019-02-24T20:05:34.221Z,10.84
2019-02-24T20:06:33.111Z,10.79
2019-02-24T20:07:31.729Z,10.67
2019-02-24T20:08:30.319Z,10.7
2019-02-24T20:09:28.821Z,10.7
2019-02-24T20:10:27.456Z,10.67
2019-02-24T20:11:26.036Z,10.63
2019-02-24T20:12:24.740Z,10.63
2019-02-24T20:13:23.598Z,10.73
2019-02-24T20:14:22.172Z,10.74
2019-02-24T20:15:20.937Z,10.61
2019-02-24T20:16:19.506Z,10.59
2019-02-24T20:17:18.085Z,10.67
2019-02-24T20:18:16.811Z,10.61
2019-02-24T20:19:15.494Z,10.61
2019-02-24T20:20:14.033Z,10.55
2019-02-24T20:21:12.788Z,10.47
2019-02-24T20:22:11.422Z,10.56
2019-02-24T20:23:10.051Z,10.59
2019-02-24T20:24:08.618Z,10.63
2019-02-24T20:25:07.254Z,10.63
2019-02-24T20:26:05.858Z,10.64
2019-02-24T20:27:04.419Z,10.68
2019-02-24T20:28:03.097Z,10.64
2019-02-24T20:29:01.728Z,10.6
2019-02-24T20:30:00.503Z,10.56
2019-02-24T20:30:59.161Z,10.64
2019-02-24T20:31:57.808Z,10.48
2019-02-24T20:32:56.513Z,10.52
2019-02-24T20:33:55.163Z,10.55
2019-02-24T20:34:53.736Z,10.55
2019-02-24T20:35:52.331Z,10.55
2019-02-24T20:36:51.061Z,10.56
2019-02-24T20:37:49.687Z,10.56
2019-02-24T20:38:48.337Z,10.53
2019-02-24T20:39:47.113Z,10.55
2019-02-24T20:40:45.690Z,10.53
2019-02-24T20:41:44.308Z,10.42
2019-02-24T20:42:43.172Z,10.53
2019-02-24T20:43:41.783Z,10.59
2019-02-24T20:44:40.342Z,10.55
2019-02-24T20:45:38.940Z,10.47
2019-02-24T20:46:37.574Z,10.53
2019-02-24T20:47:36.149Z,10.53
2019-02-24T20:48:34.820Z,10.52
2019-02-24T20:49:33.571Z,10.51
2019-02-24T20:50:32.174Z,10.51
2019-02-24T20:51:31.028Z,10.51
2019-02-24T20:52:29.600Z,10.53
2019-02-24T20:53:28.205Z,10.56
2019-02-24T20:54:26.849Z,10.52
2019-02-24T20:55:25.576Z,10.56
2019-02-24T20:56:24.141Z,10.48
2019-02-24T20:57:22.860Z,10.44
2019-02-24T20:58:21.493Z,10.4
2019-02-24T20:59:20.039Z,10.4
2019-02-24T21:00:19.068Z,10.4
2019-02-24T21:01:17.707Z,10.34
2019-02-24T21:02:16.443Z,10.38
2019-02-24T21:03:15.139Z,10.38
2019-02-24T21:04:13.967Z,10.42
2019-02-24T21:05:12.630Z,10.45
2019-02-24T21:06:11.599Z,10.41
2019-02-24T21:07:10.115Z,10.52
2019-02-24T21:08:08.815Z,10.48
2019-02-24T21:09:07.499Z,10.4
2019-02-24T21:10:06.083Z,10.42
2019-02-24T21:11:04.708Z,10.44
2019-02-24T21:12:03.575Z,10.47
2019-02-24T21:13:02.113Z,10.51
2019-02-24T21:14:01.037Z,10.38
2019-02-24T21:14:59.680Z,10.38
2019-02-24T21:15:58.326Z,10.34
2019-02-24T21:16:56.894Z,10.33
2019-02-24T21:17:55.472Z,10.29
2019-02-24T21:18:54.050Z,10.29
2019-02-24T21:19:52.676Z,10.25
2019-02-24T21:20:51.407Z,10.17
2019-02-24T21:21:50.226Z,10.18
2019-02-24T21:22:50.474Z,10.17
2019-02-24T21:23:47.538Z,10.27
2019-02-24T21:24:46.892Z,10.15
2019-02-24T21:25:45.498Z,10.25
2019-02-24T21:28:26.547Z,10.23
2019-02-24T21:29:25.249Z,10.17
2019-02-24T21:30:23.873Z,10.17
2019-02-24T21:31:22.769Z,10.15
2019-02-24T21:32:21.487Z,10.22
2019-02-24T21:33:20.258Z,10.22
2019-02-24T21:34:18.940Z,10.08
2019-02-24T21:35:17.774Z,10.07
2019-02-24T21:36:16.313Z,10.12
2019-02-24T21:37:14.884Z,10.17
2019-02-24T21:38:13.619Z,10.17
2019-02-24T21:40:36.472Z,10.14
2019-02-24T21:41:35.267Z,10.01
2019-02-24T21:42:34.435Z,10.08
2019-02-24T21:44:57.546Z,10.07
2019-02-24T21:46:57.068Z,10.15
2019-02-24T21:50:40.333Z,10.14
2019-02-24T21:52:49.060Z,10.07
2019-02-24T21:56:59.387Z,10.04
2019-02-24T21:57:58.002Z,10.01
2019-02-24T21:58:56.574Z,10.05
2019-02-24T21:59:55.453Z,10.15
2019-02-24T22:00:54.291Z,10.14
2019-02-24T22:01:53.020Z,10.17
2019-02-24T22:02:51.648Z,10.09
2019-02-24T22:03:50.293Z,10.01
2019-02-24T22:05:32.533Z,10.01
2019-02-24T22:06:31.102Z,10.08
2019-02-24T22:07:29.703Z,10.02
2019-02-24T22:10:10.174Z,9.97
2019-02-24T22:11:08.839Z,10.08
2019-02-24T22:12:07.577Z,10.01
2019-02-24T22:13:06.253Z,9.91
2019-02-24T22:14:04.829Z,9.96
2019-02-24T22:15:04.351Z,10.01
2019-02-24T22:16:03.058Z,10.01
2019-02-24T22:17:02.916Z,10.05
2019-02-24T22:18:01.664Z,10.05
2019-02-24T22:19:00.563Z,10.01
2019-02-24T22:19:59.356Z,9.93
2019-02-24T22:20:57.945Z,9.94
2019-02-24T22:24:36.709Z,9.89
2019-02-24T22:25:35.434Z,9.94
2019-02-24T22:26:33.970Z,9.76
2019-02-24T22:27:32.615Z,9.72
2019-02-24T22:28:31.353Z,9.71
2019-02-24T22:29:29.958Z,9.84
2019-02-24T22:30:28.550Z,9.89
2019-02-24T22:31:28.030Z,9.97
2019-02-24T22:32:26.614Z,9.9
2019-02-24T22:33:25.258Z,9.84
2019-02-24T22:34:23.795Z,9.79
2019-02-24T22:35:22.459Z,9.91
2019-02-24T22:36:21.241Z,9.81
2019-02-24T22:39:01.448Z,9.81
2019-02-24T22:44:26.531Z,9.61
2019-02-24T22:47:00.512Z,9.56
2019-02-24T22:47:59.089Z,9.6
2019-02-24T22:50:22.108Z,9.5
2019-02-24T22:51:20.807Z,9.5
2019-02-24T22:52:19.454Z,9.5
2019-02-24T22:53:18.077Z,9.58
2019-02-24T22:54:16.742Z,9.5
2019-02-24T22:55:15.422Z,9.6
2019-02-24T23:00:44.572Z,9.33
2019-02-24T23:01:43.465Z,9.35
2019-02-24T23:02:42.183Z,9.47
2019-02-24T23:03:40.779Z,9.4
2019-02-24T23:09:59.995Z,9.38
2019-02-24T23:10:58.549Z,9.5
2019-02-24T23:11:57.587Z,9.51
2019-02-24T23:12:56.089Z,9.39
2019-02-24T23:13:54.738Z,9.38
2019-02-24T23:14:53.401Z,9.36
2019-02-24T23:16:54.065Z,9.29
2019-02-24T23:18:36.147Z,9.4
2019-02-24T23:19:34.934Z,9.23
2019-02-24T23:20:33.621Z,9.4
2019-02-24T23:21:32.423Z,9.32
2019-02-24T23:24:16.380Z,9.29
2019-02-24T23:25:15.292Z,9.24
2019-02-24T23:26:13.833Z,9.14
2019-02-24T23:27:12.462Z,9.14
2019-02-24T23:28:11.026Z,9.13
2019-02-24T23:29:09.597Z,8.99
2019-02-24T23:30:08.264Z,8.98
2019-02-24T23:31:06.963Z,9.04
2019-02-24T23:32:05.603Z,9.11
2019-02-24T23:33:04.321Z,9.05
2019-02-24T23:34:03.070Z,9.01
2019-02-24T23:35:01.654Z,8.99
2019-02-24T23:36:00.214Z,8.96
2019-02-24T23:36:58.751Z,8.94
2019-02-24T23:37:57.601Z,8.94
2019-02-24T23:38:56.182Z,8.98
2019-02-24T23:41:40.835Z,9.15
2019-02-24T23:44:22.430Z,8.98
2019-02-24T23:45:21.045Z,8.84
2019-02-24T23:46:20.207Z,8.91
2019-02-24T23:47:18.926Z,8.96
2019-02-24T23:48:17.561Z,8.95
2019-02-24T23:49:16.169Z,8.98
2019-02-24T23:50:14.787Z,8.95
